Green Camp, OH (43322)

3:01 AM EDT on September 01, 2015 (GMT -0400)
Green Camp Fire Department | | Change Station
CLOSE
Current Station
Personal Weather Station
Location: Green Camp, OH
Elevation: 915 ft
Nearby Weather Stations

Elev 915 ft 40.53 °N, 83.21 °W | Updated 23 seconds ago

Clear
Clear
68.2 °F
Feels Like 68.2 °F
N
0.7
Wind Variable Wind from SSW
Gusts 1.6 mph

Today
High -- | Low -- °F
--% Chance of Precip.
Yesterday
High -- | Low -- °F
Precip. -- in
6:59 AM 8:05 PM
Waning Gibbous, 91% visible
Pressure 30.09 in
Visibility 3.0 miles
Clouds Clear
Dew Point 68 °F
Humidity 99%
Rainfall 0.00 in
Snow Depth Not available.
UV 0 out of 12
Pollen 9.90 out of 12
Air Quality Not available.
Flu Activity Not available.
METAR KMNN 010653Z AUTO 00000KT 3SM BR CLR 20/19 A3011 RMK AO2 SLP188 T02000189 TSNO
Pressure 30.09 in
Visibility 3.0 miles
Clouds Clear
Dew Point 68 °F
Humidity 99%
Rainfall 0.00 in
Snow Depth Not available.
UV 0 out of 12
Pollen 9.90 out of 12
Air Quality Not available.
Flu Activity Not available.
METAR KMNN 010653Z AUTO 00000KT 3SM BR CLR 20/19 A3011 RMK AO2 SLP188 T02000189 TSNO

10-Day Weather Forecast

×

Almanac

Astronomy

Sep. 01, 2015 Rise Set
Actual Time
Civil Twilight
Nautical Twilight
Astronomical Twilight
Moon
Length of Visible Light
Length of Day
Tomorrow will be .
, % of the Moon is Illuminated

Today's Extremes

State Highs State Lows

Community

WunderPhotos

Upload Photos

1,851,488 photos uploaded!

WunderBlogs® & News

Nearby

Air Quality

  Air Quality AQ Index Pollutant
Not available.

Snow Depth

Station Depth Elevation

Earthquake Activity

City Distance Mag. Time & Date
Minimum magnitude displayed is 2.5.

Coastal Water Temperatures

Place Temperature

Stations

Nearby Weather Stations

Station Location Temp. Windchill Dew Point Humidity Wind Precip. Elev Updated Type